createdAt,value
2022-09-24T00:01:40.977Z,17.50
2022-09-24T00:04:11.418Z,17.50
2022-09-24T00:06:41.930Z,17.51
2022-09-24T00:09:10.228Z,17.51
2022-09-24T00:11:39.467Z,17.48
2022-09-24T00:14:08.854Z,17.40
2022-09-24T00:16:37.714Z,17.41
2022-09-24T00:19:06.336Z,17.45
2022-09-24T00:21:36.253Z,17.47
2022-09-24T00:24:07.926Z,17.49
2022-09-24T00:26:49.585Z,17.48
2022-09-24T00:29:20.138Z,17.35
2022-09-24T00:31:48.271Z,17.42
2022-09-24T00:34:16.367Z,17.32
2022-09-24T00:36:46.626Z,17.36
2022-09-24T00:39:14.922Z,17.29
2022-09-24T00:41:47.931Z,17.22
2022-09-24T00:44:53.541Z,17.34
2022-09-24T00:47:33.322Z,17.26
2022-09-24T00:50:08.021Z,17.26
2022-09-24T00:52:36.719Z,17.23
2022-09-24T00:55:04.725Z,17.24
2022-09-24T00:57:32.761Z,17.17
2022-09-24T01:00:02.984Z,17.17
2022-09-24T01:02:30.929Z,17.14
2022-09-24T01:04:59.372Z,17.12
2022-09-24T01:07:27.085Z,17.20
2022-09-24T01:09:54.796Z,17.10
2022-09-24T01:12:28.566Z,17.15
2022-09-24T01:15:09.353Z,17.16
2022-09-24T01:17:41.541Z,17.10
2022-09-24T01:20:49.279Z,17.12
2022-09-24T01:23:32.096Z,17.07
2022-09-24T01:26:19.845Z,17.10
2022-09-24T01:29:02.586Z,17.05
2022-09-24T01:31:35.383Z,17.04
2022-09-24T01:34:05.602Z,17.11
2022-09-24T01:36:34.867Z,17.10
2022-09-24T01:39:03.205Z,17.06
2022-09-24T01:41:33.567Z,17.06
2022-09-24T01:44:04.985Z,17.06
2022-09-24T01:46:34.212Z,17.05
2022-09-24T01:49:01.975Z,17.05
2022-09-24T01:51:33.345Z,17.00
2022-09-24T01:54:04.358Z,16.88
2022-09-24T01:56:36.078Z,17.01
2022-09-24T01:59:06.834Z,16.91
2022-09-24T02:01:39.221Z,16.89
2022-09-24T02:04:11.456Z,16.94
2022-09-24T02:06:42.307Z,16.93
2022-09-24T02:09:31.572Z,16.90
2022-09-24T02:12:00.042Z,16.87
2022-09-24T02:14:30.557Z,16.93
2022-09-24T02:17:00.431Z,16.43
2022-09-24T02:19:30.917Z,16.75
2022-09-24T02:21:59.167Z,16.78
2022-09-24T02:24:32.963Z,16.77
2022-09-24T02:27:00.737Z,16.77
2022-09-24T02:29:29.837Z,16.77
2022-09-24T02:31:59.851Z,16.81
2022-09-24T02:34:31.099Z,16.77
2022-09-24T02:37:00.944Z,16.63
2022-09-24T02:39:30.054Z,16.55
2022-09-24T02:41:58.202Z,16.40
2022-09-24T02:44:25.988Z,16.40
2022-09-24T02:47:00.897Z,16.44
2022-09-24T02:49:30.181Z,16.63
2022-09-24T02:51:57.896Z,16.66
2022-09-24T02:54:26.089Z,16.69
2022-09-24T02:56:54.357Z,16.67
2022-09-24T02:59:22.535Z,16.73
2022-09-24T03:01:51.009Z,16.68
2022-09-24T03:04:20.128Z,16.72
2022-09-24T03:06:47.845Z,16.66
2022-09-24T03:09:15.715Z,16.57
2022-09-24T03:11:43.428Z,16.56
2022-09-24T03:14:11.204Z,16.65
2022-09-24T03:16:39.007Z,16.62
2022-09-24T03:19:07.293Z,16.62
2022-09-24T03:21:36.525Z,16.67
2022-09-24T03:24:04.752Z,16.65
2022-09-24T03:26:33.103Z,16.66
2022-09-24T03:29:00.833Z,16.58
2022-09-24T03:31:27.580Z,16.67
2022-09-24T03:33:57.062Z,16.64
2022-09-24T03:36:26.903Z,16.62
2022-09-24T03:38:57.755Z,16.48
2022-09-24T03:41:27.208Z,16.55
2022-09-24T03:43:55.394Z,16.58
2022-09-24T03:46:28.151Z,16.63
2022-09-24T03:48:56.086Z,16.59
2022-09-24T03:51:24.402Z,16.51
2022-09-24T03:53:52.275Z,16.38
2022-09-24T03:56:21.376Z,16.46
2022-09-24T03:58:49.145Z,16.40
2022-09-24T04:01:21.758Z,16.50
2022-09-24T04:03:50.231Z,16.54
2022-09-24T04:06:23.359Z,16.50
2022-09-24T04:08:53.584Z,16.52
2022-09-24T04:11:22.662Z,16.54
2022-09-24T04:13:50.650Z,16.58
2022-09-24T04:16:18.469Z,16.58
2022-09-24T04:18:48.703Z,16.40
2022-09-24T04:21:16.445Z,16.54
2022-09-24T04:23:44.161Z,16.54
2022-09-24T04:26:12.422Z,16.55
2022-09-24T04:28:41.805Z,16.50
2022-09-24T04:31:09.867Z,16.54
2022-09-24T04:33:37.696Z,16.56
2022-09-24T04:36:05.433Z,16.53
2022-09-24T04:38:33.134Z,16.51
2022-09-24T04:41:06.161Z,16.54
2022-09-24T04:43:34.108Z,16.57
2022-09-24T04:46:03.407Z,16.55
2022-09-24T04:48:31.642Z,16.54
2022-09-24T04:50:59.391Z,16.55
2022-09-24T04:53:27.598Z,16.58
2022-09-24T04:55:55.311Z,16.61
2022-09-24T04:58:23.038Z,16.61
2022-09-24T05:00:51.151Z,16.61
2022-09-24T05:03:21.323Z,16.62
2022-09-24T05:05:49.992Z,16.63
2022-09-24T05:08:17.714Z,16.60
2022-09-24T05:10:45.429Z,16.42
2022-09-24T05:13:13.129Z,16.52
2022-09-24T05:15:43.140Z,16.47
2022-09-24T05:18:11.155Z,16.32
2022-09-24T05:20:40.215Z,16.36
2022-09-24T05:23:08.417Z,16.34
2022-09-24T05:25:57.079Z,16.37
2022-09-24T05:28:23.880Z,16.39
2022-09-24T05:30:51.985Z,16.34
2022-09-24T05:33:20.162Z,16.39
2022-09-24T05:35:55.447Z,16.34
2022-09-24T05:38:23.176Z,16.39
2022-09-24T05:40:51.253Z,16.42
2022-09-24T05:43:20.176Z,16.22
2022-09-24T05:45:48.954Z,16.36
2022-09-24T05:48:17.133Z,16.38
2022-09-24T05:50:44.852Z,16.37
2022-09-24T05:53:14.168Z,16.35
2022-09-24T05:55:43.722Z,16.43
2022-09-24T05:58:12.044Z,16.40
2022-09-24T06:00:39.785Z,16.42
2022-09-24T06:03:10.020Z,16.43
2022-09-24T06:05:37.779Z,16.43
2022-09-24T06:08:06.078Z,16.40
2022-09-24T06:10:35.341Z,16.37
2022-09-24T06:13:04.307Z,16.26
2022-09-24T06:15:32.054Z,16.29
2022-09-24T06:17:59.733Z,16.22
2022-09-24T06:20:27.608Z,16.02
2022-09-24T06:22:57.295Z,16.05
2022-09-24T06:25:25.107Z,16.07
2022-09-24T06:28:00.133Z,16.18
2022-09-24T06:30:31.444Z,16.06
2022-09-24T06:33:05.207Z,16.06
2022-09-24T06:35:34.847Z,15.80
2022-09-24T06:38:07.224Z,15.91
2022-09-24T06:40:37.645Z,15.58
2022-09-24T06:43:07.523Z,15.61
2022-09-24T06:45:35.471Z,15.58
2022-09-24T06:48:04.580Z,15.29
2022-09-24T06:50:34.258Z,15.38
2022-09-24T06:53:05.318Z,15.49
2022-09-24T06:55:33.303Z,15.44
2022-09-24T06:58:07.557Z,15.12
2022-09-24T07:00:36.466Z,15.39
2022-09-24T07:03:04.297Z,15.22
2022-09-24T07:05:32.149Z,15.53
2022-09-24T07:07:59.879Z,15.69
2022-09-24T07:10:28.006Z,15.29
2022-09-24T07:12:55.756Z,15.17
2022-09-24T07:15:24.848Z,15.24
2022-09-24T07:17:56.169Z,15.38
2022-09-24T07:20:24.526Z,15.41
2022-09-24T07:22:52.230Z,15.38
2022-09-24T07:25:19.950Z,15.61
2022-09-24T07:27:47.730Z,15.51
2022-09-24T07:30:15.702Z,15.71
2022-09-24T07:32:44.752Z,15.26
2022-09-24T07:35:12.508Z,15.58
2022-09-24T07:37:40.224Z,15.15
2022-09-24T07:40:09.996Z,15.22
2022-09-24T07:42:39.049Z,15.41
2022-09-24T07:45:07.518Z,15.12
2022-09-24T07:47:35.386Z,15.10
2022-09-24T07:50:04.989Z,15.35
2022-09-24T07:52:32.718Z,15.32
2022-09-24T07:55:00.402Z,15.04
2022-09-24T07:57:30.710Z,14.95
2022-09-24T07:59:58.437Z,14.87
2022-09-24T08:02:26.149Z,14.81
2022-09-24T08:04:54.531Z,15.15
2022-09-24T08:07:23.582Z,14.77
2022-09-24T08:09:51.314Z,14.86
2022-09-24T08:12:18.997Z,14.72
2022-09-24T08:14:46.709Z,14.78
2022-09-24T08:17:14.422Z,14.70
2022-09-24T08:19:43.171Z,14.68
2022-09-24T08:22:10.929Z,14.56
2022-09-24T08:24:39.971Z,14.87
2022-09-24T08:27:07.687Z,14.67
2022-09-24T08:29:35.699Z,14.85
2022-09-24T08:32:03.744Z,15.00
2022-09-24T08:34:38.137Z,15.02
2022-09-24T08:37:05.967Z,14.85
2022-09-24T08:39:33.754Z,14.88
2022-09-24T08:42:06.109Z,15.04
2022-09-24T08:44:55.784Z,15.10
2022-09-24T08:47:35.916Z,14.75
2022-09-24T08:50:09.295Z,15.00
2022-09-24T08:52:59.458Z,14.88
2022-09-24T08:55:32.809Z,14.80
2022-09-24T08:58:12.540Z,14.97
2022-09-24T09:00:44.585Z,15.13
2022-09-24T09:03:18.622Z,15.07
2022-09-24T09:05:53.502Z,14.94
2022-09-24T09:11:23.209Z,15.13
2022-09-24T09:13:54.143Z,15.30
2022-09-24T09:16:24.847Z,15.70
2022-09-24T09:18:54.789Z,15.54
2022-09-24T09:21:28.953Z,15.76
2022-09-24T09:23:57.694Z,15.87
2022-09-24T09:26:27.130Z,15.82
2022-09-24T09:28:59.659Z,15.75
2022-09-24T09:31:37.617Z,15.57
2022-09-24T09:34:22.546Z,15.46
2022-09-24T09:37:03.102Z,15.56
2022-09-24T09:39:37.510Z,15.55
2022-09-24T09:42:10.359Z,15.74
2022-09-24T09:44:42.312Z,15.46
2022-09-24T09:47:17.233Z,15.74
2022-09-24T09:49:46.744Z,15.30
2022-09-24T09:52:17.438Z,15.53
2022-09-24T09:54:45.619Z,15.39
2022-09-24T09:57:17.546Z,15.19
2022-09-24T09:59:48.414Z,15.45
2022-09-24T10:02:26.749Z,15.46
2022-09-24T10:04:56.666Z,15.50
2022-09-24T10:07:24.911Z,15.49
2022-09-24T10:10:03.910Z,15.61
2022-09-24T10:12:31.832Z,15.65
2022-09-24T10:15:02.633Z,15.58
2022-09-24T10:17:33.065Z,15.47
2022-09-24T10:20:02.314Z,15.51
2022-09-24T10:22:30.649Z,15.50
2022-09-24T10:25:00.789Z,15.43
2022-09-24T10:27:32.856Z,15.38
2022-09-24T10:30:19.762Z,15.51
2022-09-24T10:32:48.765Z,15.48
2022-09-24T10:35:26.399Z,15.59
2022-09-24T10:37:55.648Z,15.45
2022-09-24T10:40:25.772Z,15.56
2022-09-24T10:42:58.065Z,15.47
2022-09-24T10:45:37.218Z,15.63
2022-09-24T10:48:13.040Z,15.80
2022-09-24T10:50:44.065Z,15.81
2022-09-24T10:53:15.135Z,15.82
2022-09-24T10:55:50.198Z,15.89
2022-09-24T10:58:29.804Z,15.89
2022-09-24T11:01:06.822Z,16.00
2022-09-24T11:04:06.888Z,15.90
2022-09-24T11:06:45.469Z,16.16
2022-09-24T11:09:22.962Z,16.14
2022-09-24T11:11:56.873Z,16.02
2022-09-24T11:14:50.823Z,16.03
2022-09-24T11:17:27.959Z,15.82
2022-09-24T11:20:07.449Z,16.04
2022-09-24T11:22:44.934Z,15.84
2022-09-24T11:25:24.375Z,16.10
2022-09-24T11:27:58.083Z,16.06
2022-09-24T11:30:28.531Z,16.10
2022-09-24T11:33:05.293Z,16.01
2022-09-24T11:36:06.384Z,16.08
2022-09-24T11:38:46.834Z,15.96
2022-09-24T11:41:21.629Z,16.03
2022-09-24T11:44:00.818Z,15.94
2022-09-24T11:46:39.553Z,15.82
2022-09-24T11:49:20.614Z,15.95
2022-09-24T11:51:55.190Z,15.76
2022-09-24T11:54:27.044Z,15.88
2022-09-24T11:56:58.997Z,15.88
2022-09-24T11:59:34.327Z,15.72
2022-09-24T12:02:06.454Z,15.64
2022-09-24T12:04:49.372Z,15.81
2022-09-24T12:07:23.399Z,15.67
2022-09-24T12:09:53.864Z,15.70
2022-09-24T12:12:24.019Z,15.97
2022-09-24T12:14:54.537Z,15.89
2022-09-24T12:17:26.664Z,15.77
2022-09-24T12:20:00.184Z,15.96
2022-09-24T12:22:29.405Z,15.93
2022-09-24T12:24:59.249Z,16.00
2022-09-24T12:27:32.542Z,15.87
2022-09-24T12:30:32.446Z,15.81
2022-09-24T12:33:04.499Z,15.88
2022-09-24T12:35:38.563Z,15.89
2022-09-24T12:38:09.446Z,15.80
2022-09-24T12:40:59.060Z,15.64
2022-09-24T12:43:31.355Z,15.67
2022-09-24T12:46:04.169Z,15.65
2022-09-24T12:48:34.730Z,15.74
2022-09-24T12:51:06.215Z,15.71
2022-09-24T12:53:35.914Z,15.75
2022-09-24T12:56:06.284Z,15.71
2022-09-24T12:58:38.861Z,15.62
2022-09-24T13:01:22.811Z,15.73
2022-09-24T13:04:04.065Z,15.59
2022-09-24T13:06:35.788Z,15.61
2022-09-24T13:09:25.594Z,15.83
2022-09-24T13:12:03.833Z,15.72
2022-09-24T13:14:32.415Z,15.76
2022-09-24T13:17:02.959Z,15.63
2022-09-24T13:19:37.126Z,15.76
2022-09-24T13:22:06.462Z,15.84
2022-09-24T13:24:47.049Z,15.95
2022-09-24T13:27:37.815Z,15.84
2022-09-24T13:30:15.025Z,15.78
2022-09-24T13:32:47.841Z,15.91
2022-09-24T13:35:22.076Z,15.91
2022-09-24T13:37:54.847Z,15.91
2022-09-24T13:40:25.980Z,15.96
2022-09-24T13:42:58.764Z,15.99
2022-09-24T13:45:26.714Z,15.94
2022-09-24T13:47:56.248Z,15.98
2022-09-24T13:50:25.723Z,15.89
2022-09-24T13:52:57.886Z,16.08
2022-09-24T13:55:30.897Z,15.98
2022-09-24T13:57:59.125Z,16.09
2022-09-24T14:00:27.868Z,16.30
2022-09-24T14:03:02.390Z,16.13
2022-09-24T14:05:32.090Z,16.30
2022-09-24T14:08:04.510Z,16.33
2022-09-24T14:10:32.729Z,16.17
2022-09-24T14:13:10.597Z,16.29
2022-09-24T14:15:38.468Z,16.39
2022-09-24T14:18:12.091Z,16.44
2022-09-24T14:20:40.739Z,16.63
2022-09-24T14:23:16.896Z,16.72
2022-09-24T14:25:44.720Z,16.74
2022-09-24T14:28:14.093Z,16.51
2022-09-24T14:30:49.908Z,16.47
2022-09-24T14:33:19.010Z,16.64
2022-09-24T14:35:48.307Z,16.81
2022-09-24T14:38:19.350Z,16.85
2022-09-24T14:40:49.622Z,16.82
2022-09-24T14:43:21.505Z,16.65
2022-09-24T14:45:50.222Z,16.28
2022-09-24T14:48:21.849Z,16.25
2022-09-24T14:50:49.581Z,16.13
2022-09-24T14:53:23.626Z,16.10
2022-09-24T14:55:51.571Z,15.94
2022-09-24T14:58:27.595Z,15.98
2022-09-24T15:00:58.050Z,16.30
2022-09-24T15:03:29.859Z,16.24
2022-09-24T15:06:17.913Z,15.77
2022-09-24T15:08:53.290Z,15.74
2022-09-24T15:11:21.310Z,15.76
2022-09-24T15:13:58.986Z,15.74
2022-09-24T15:16:31.758Z,15.87
2022-09-24T15:19:11.044Z,15.88
2022-09-24T15:21:38.904Z,15.77
2022-09-24T15:24:08.055Z,15.79
2022-09-24T15:26:37.128Z,15.66
2022-09-24T15:29:05.484Z,15.68
2022-09-24T15:31:33.280Z,15.98
2022-09-24T15:34:01.091Z,16.14
2022-09-24T15:36:29.781Z,16.26
2022-09-24T15:39:03.105Z,16.01
2022-09-24T15:41:32.260Z,16.01
2022-09-24T15:44:00.686Z,15.95
2022-09-24T15:46:28.680Z,15.90
2022-09-24T15:48:56.434Z,15.92
2022-09-24T15:51:24.504Z,16.20
2022-09-24T15:53:52.365Z,16.15
2022-09-24T15:56:20.071Z,16.07
2022-09-24T15:58:49.153Z,16.09
2022-09-24T16:01:18.865Z,15.98
2022-09-24T16:03:46.694Z,16.28
2022-09-24T16:06:15.024Z,15.96
2022-09-24T16:08:43.445Z,16.07
2022-09-24T16:11:11.263Z,16.05
2022-09-24T16:13:38.993Z,15.88
2022-09-24T16:16:08.977Z,15.89
2022-09-24T16:18:39.653Z,16.03
2022-09-24T16:21:08.218Z,15.87
2022-09-24T16:23:36.029Z,16.00
2022-09-24T16:26:04.067Z,15.82
2022-09-24T16:28:32.235Z,15.74
2022-09-24T16:30:59.979Z,15.82
2022-09-24T16:33:29.069Z,15.67
2022-09-24T16:35:56.761Z,15.63
2022-09-24T16:38:24.513Z,15.58
2022-09-24T16:41:00.547Z,15.71
2022-09-24T16:43:30.686Z,15.79
2022-09-24T16:46:03.100Z,15.76
2022-09-24T16:48:32.655Z,15.75
2022-09-24T16:51:04.746Z,15.87
2022-09-24T16:53:34.124Z,15.74
2022-09-24T16:56:07.724Z,15.82
2022-09-24T16:58:36.045Z,15.95
2022-09-24T17:01:07.774Z,15.76
2022-09-24T17:03:37.390Z,15.87
2022-09-24T17:06:06.146Z,15.93
2022-09-24T17:08:53.097Z,15.87
2022-09-24T17:11:21.351Z,15.68
2022-09-24T17:13:49.202Z,15.82
2022-09-24T17:16:18.624Z,15.83
2022-09-24T17:18:47.749Z,15.70
2022-09-24T17:21:16.701Z,15.71
2022-09-24T17:23:44.715Z,15.81
2022-09-24T17:26:13.964Z,15.64
2022-09-24T17:28:43.314Z,15.64
2022-09-24T17:31:13.821Z,15.49
2022-09-24T17:33:43.808Z,15.49
2022-09-24T17:36:14.103Z,15.89
2022-09-24T17:38:42.056Z,15.71
2022-09-24T17:41:11.761Z,15.68
2022-09-24T17:43:40.541Z,15.74
2022-09-24T17:46:13.771Z,15.49
2022-09-24T17:48:44.344Z,15.53
2022-09-24T17:51:15.978Z,15.84
2022-09-24T17:53:44.150Z,15.69
2022-09-24T17:56:13.397Z,15.60
2022-09-24T17:58:42.554Z,15.81
2022-09-24T18:01:12.139Z,15.90
2022-09-24T18:03:40.423Z,15.54
2022-09-24T18:06:09.873Z,15.44
2022-09-24T18:08:39.344Z,15.57
2022-09-24T18:11:09.097Z,15.63
2022-09-24T18:13:36.958Z,15.59
2022-09-24T18:16:05.371Z,15.57
2022-09-24T18:18:33.533Z,15.54
2022-09-24T18:21:02.451Z,15.72
2022-09-24T18:23:30.843Z,15.79
2022-09-24T18:26:10.686Z,15.78
2022-09-24T18:28:39.635Z,15.56
2022-09-24T18:31:08.386Z,15.75
2022-09-24T18:33:38.715Z,15.65
2022-09-24T18:36:08.848Z,15.73
2022-09-24T18:38:36.738Z,15.56
2022-09-24T18:41:10.072Z,15.75
2022-09-24T18:43:38.189Z,15.77
2022-09-24T18:46:06.476Z,15.41
2022-09-24T18:48:35.205Z,15.87
2022-09-24T18:51:03.170Z,15.77
2022-09-24T18:53:31.772Z,15.63
2022-09-24T18:56:00.438Z,15.61
2022-09-24T18:58:29.526Z,15.66
2022-09-24T19:00:59.165Z,15.61
2022-09-24T19:03:28.332Z,15.76
2022-09-24T19:05:58.014Z,15.82
2022-09-24T19:08:25.874Z,15.87
2022-09-24T19:10:54.142Z,15.73
2022-09-24T19:13:26.358Z,15.89
2022-09-24T19:15:55.707Z,16.04
2022-09-24T19:18:23.516Z,15.82
2022-09-24T19:20:51.241Z,15.99
2022-09-24T19:23:19.037Z,15.75
2022-09-24T19:25:46.734Z,15.99
2022-09-24T19:28:14.578Z,16.11
2022-09-24T19:30:44.669Z,16.17
2022-09-24T19:33:15.885Z,16.03
2022-09-24T19:35:45.622Z,16.10
2022-09-24T19:38:16.530Z,16.22
2022-09-24T19:40:44.283Z,16.31
2022-09-24T19:43:12.884Z,16.35
2022-09-24T19:45:40.601Z,16.18
2022-09-24T19:48:08.310Z,16.15
2022-09-24T19:50:38.479Z,16.30
2022-09-24T19:53:06.243Z,16.29
2022-09-24T19:55:35.902Z,16.28
2022-09-24T19:58:03.615Z,16.42
2022-09-24T20:00:31.327Z,16.42
2022-09-24T20:02:59.259Z,16.43
2022-09-24T20:05:26.996Z,16.53
2022-09-24T20:07:56.103Z,16.54
2022-09-24T20:10:23.964Z,16.61
2022-09-24T20:12:54.369Z,16.56
2022-09-24T20:15:22.329Z,16.59
2022-09-24T20:17:50.047Z,16.61
2022-09-24T20:20:18.143Z,16.61
2022-09-24T20:22:45.849Z,16.62
2022-09-24T20:25:15.125Z,16.66
2022-09-24T20:27:51.036Z,16.62
2022-09-24T20:30:21.460Z,16.66
2022-09-24T20:32:49.298Z,16.65
2022-09-24T20:35:17.673Z,16.65
2022-09-24T20:37:45.436Z,16.60
2022-09-24T20:40:13.197Z,16.60
2022-09-24T20:42:42.336Z,16.58
2022-09-24T20:45:10.528Z,16.56
2022-09-24T20:47:38.910Z,16.45
2022-09-24T20:50:07.914Z,16.53
2022-09-24T20:52:35.663Z,16.55
2022-09-24T20:55:03.475Z,16.52
2022-09-24T20:57:31.219Z,16.47
2022-09-24T21:00:00.283Z,16.40
2022-09-24T21:02:29.655Z,16.43
2022-09-24T21:04:57.475Z,16.37
2022-09-24T21:07:25.213Z,16.54
2022-09-24T21:09:53.132Z,16.57
2022-09-24T21:12:20.823Z,16.61
2022-09-24T21:14:48.762Z,16.64
2022-09-24T21:17:18.501Z,16.64
2022-09-24T21:19:46.206Z,16.64
2022-09-24T21:22:14.594Z,16.65
2022-09-24T21:24:42.269Z,16.65
2022-09-24T21:27:09.991Z,16.62
2022-09-24T21:29:37.714Z,16.66
2022-09-24T21:32:05.462Z,16.65
2022-09-24T21:34:35.585Z,16.59
2022-09-24T21:37:03.415Z,16.62
2022-09-24T21:39:31.133Z,16.60
2022-09-24T21:41:59.239Z,16.64
2022-09-24T21:44:30.277Z,16.60
2022-09-24T21:46:58.029Z,16.71
2022-09-24T21:49:25.793Z,16.66
2022-09-24T21:51:55.606Z,16.66
2022-09-24T21:54:23.677Z,16.68
2022-09-24T21:56:52.803Z,16.68
2022-09-24T21:59:37.946Z,16.66
2022-09-24T22:02:05.715Z,16.63
2022-09-24T22:04:33.729Z,16.62
2022-09-24T22:07:04.167Z,16.62
2022-09-24T22:09:32.872Z,16.60
2022-09-24T22:12:01.767Z,16.56
2022-09-24T22:14:29.721Z,16.58
2022-09-24T22:16:57.612Z,16.60
2022-09-24T22:19:25.435Z,16.67
2022-09-24T22:21:53.358Z,16.59
2022-09-24T22:24:22.457Z,16.55
2022-09-24T22:26:50.186Z,16.50
2022-09-24T22:29:18.018Z,16.57
2022-09-24T22:31:45.739Z,16.57
2022-09-24T22:34:39.324Z,16.57
2022-09-24T22:37:07.895Z,16.57
2022-09-24T22:39:37.028Z,16.56
2022-09-24T22:42:05.172Z,16.52
2022-09-24T22:44:32.923Z,16.58
2022-09-24T22:47:00.665Z,16.58
2022-09-24T22:49:28.962Z,16.62
2022-09-24T22:51:56.668Z,16.60
2022-09-24T22:54:25.221Z,16.58
2022-09-24T22:56:54.302Z,16.63
2022-09-24T22:59:21.988Z,16.61
2022-09-24T23:01:49.795Z,16.68
2022-09-24T23:04:17.516Z,16.64
2022-09-24T23:06:45.264Z,16.64
2022-09-24T23:09:12.997Z,16.45
2022-09-24T23:11:40.888Z,16.39
2022-09-24T23:14:13.373Z,16.48
2022-09-24T23:16:42.599Z,16.54
2022-09-24T23:19:13.570Z,16.61
2022-09-24T23:21:41.509Z,16.50
2022-09-24T23:24:13.340Z,16.52
2022-09-24T23:26:41.077Z,16.43
2022-09-24T23:29:11.178Z,16.53
2022-09-24T23:31:39.101Z,16.61
2022-09-24T23:34:07.835Z,16.49
2022-09-24T23:36:36.266Z,16.57
2022-09-24T23:39:05.512Z,16.58
2022-09-24T23:41:33.460Z,16.51
2022-09-24T23:44:03.629Z,16.61
2022-09-24T23:46:34.035Z,16.54
2022-09-24T23:49:02.999Z,16.52
2022-09-24T23:51:30.827Z,16.59
2022-09-24T23:53:58.572Z,16.60
2022-09-24T23:56:26.365Z,16.59
2022-09-24T23:58:54.893Z,16.59
